• Join FlightAware (Why Join?)
  • Login
  • US Flag 
11:38PM EDT


 

Airport Tracker/Info


-or-


 

Live Flight TrackerFlight Track Log ✈ AAL2345 ✈ 01-Jun-2013 ✈ KORD - KDFW

Flight Track Log - Related Links

Times and Time Zones

All times are in EDT time to prevent confusion due to time zone crossing. See the AAL2345 flight status page for this flight to view local times or setup timezone preferences in your user account.

Time Position Orientation Groundspeed Altitude Reporting Facility
EDT Latitude Longitude Course Direction KTS MPH feet Rate Location/Type
07:27PM 41.9500 -87.9833 252° West 167 192 3,300  Level Chicago TRACON
07:28PM 41.9000 -88.0333 217° Southwest 237 273 5,200 2,460 Climbing Chicago TRACON
07:29PM 41.8913 -88.2771 255° West  Level FlightAware Approximate
07:29PM 41.8500 -88.0833 217° Southwest 267 307 8,300  Level Chicago TRACON
07:30PM 41.8511 -88.3972 242° Southwest  Level FlightAware Approximate
07:30PM 41.7883 -88.1458 217° Southwest 261 300 11,200  Level Chicago Center
07:31PM 41.8243 -88.5243 254° West  Level FlightAware Approximate
07:31PM 41.7550 -88.2369 244° Southwest 274 315 13,100  Level Chicago Center
07:32PM 41.7406 -88.6179 252° West  Level Estimated
07:32PM 41.7289 -88.3594 254° West 291 335 15,700  Level Chicago Center
07:33PM 41.7256 -88.4692 268° West 300 345 18,200 1,740 Climbing Chicago Center
07:34PM 41.7297 -88.5906 273° West 327 376 19,300 1,380 Climbing Chicago Center
07:35PM 41.7089 -88.7178 258° West 347 399 21,100 1,980 Climbing Chicago Center
07:36PM 41.6867 -88.8442 257° West 351 404 23,400 1,860 Climbing Chicago Center
07:37PM 41.6617 -88.9703 255° West 354 407 25,000 1,200 Climbing Chicago Center
07:38PM 41.6303 -89.1303 255° West 375 432 25,900 720 Climbing Chicago Center
07:39PM 41.6022 -89.2761 256° West 404 465 26,500 780 Climbing Chicago Center
07:40PM 41.5708 -89.4292 255° West 425 489 27,600 720 Climbing Chicago Center
07:41PM 41.5433 -89.5658 255° West 430 495 28,000 180 Climbing Chicago Center
07:42PM 41.5064 -89.7450 255° West 421 484 28,000  Level Chicago Center
07:43PM 41.4775 -89.8958 256° West 422 486 28,000  Level Chicago Center
07:44PM 41.4464 -90.0444 254° West 420 483 28,000  Level Chicago Center
07:45PM 41.4158 -90.1942 255° West 420 483 28,000  Level Chicago Center
07:46PM 41.3786 -90.3447 252° West 429 494 28,000  Level Chicago Center
07:47PM 41.2997 -90.4572 227° Southwest 423 487 28,000  Level Chicago Center
07:48PM 41.2111 -90.5600 221° Southwest 426 490 28,000  Level Chicago Center
07:49PM 41.1250 -90.6594 221° Southwest 417 480 28,000  Level Chicago Center
07:50PM 41.0206 -90.7769 220° Southwest 413 475 28,000  Level Chicago Center
07:51PM 40.9322 -90.8769 221° Southwest 417 480 28,000  Level Chicago Center
07:52PM 40.8461 -90.9750 221° Southwest 414 476 28,000  Level Chicago Center
07:53PM 40.7586 -91.0736 220° Southwest 415 478 28,000  Level Chicago Center
07:54PM 40.6714 -91.1725 221° Southwest 414 476 28,000  Level Chicago Center
07:55PM 40.5994 -91.2517 220° Southwest 416 479 28,000  Level Kansas City Center
07:56PM 40.5114 -91.3483 220° Southwest 417 480 28,000  Level Kansas City Center
07:57PM 40.4242 -91.4453 220° Southwest 415 478 28,000  Level Kansas City Center
07:58PM 40.4081 -91.4650 223° Southwest 414 476 28,000  Level Chicago Center
07:58PM 40.3367 -91.5428 220° Southwest 414 476 28,000  Level Kansas City Center
07:59PM 40.2475 -91.6417 220° Southwest 418 481 28,000  Level Kansas City Center
08:00PM 40.1578 -91.7400 220° Southwest 420 483 28,000  Level Kansas City Center
08:01PM 40.0508 -91.8589 220° Southwest 421 484 28,000  Level Kansas City Center
08:02PM 39.9614 -91.9569 220° Southwest 421 484 28,000  Level Kansas City Center
08:03PM 39.8711 -92.0547 220° Southwest 420 483 28,000  Level Kansas City Center
08:04PM 39.7811 -92.1531 220° Southwest 422 486 28,000  Level Kansas City Center
08:05PM 39.6917 -92.2500 220° Southwest 420 483 28,000  Level Kansas City Center
08:06PM 39.6008 -92.3469 219° Southwest 424 488 28,000  Level Kansas City Center
08:08PM 39.5094 -92.4464 220° Southwest 428 493 28,000  Level Kansas City Center
08:09PM 39.4164 -92.5456 219° Southwest 432 497 28,000  Level Kansas City Center
08:10PM 39.3242 -92.6450 220° Southwest 433 498 28,000  Level Kansas City Center
08:11PM 39.2119 -92.7633 219° Southwest 435 501 28,000  Level Kansas City Center
08:12PM 39.1172 -92.8642 220° Southwest 441 507 28,000  Level Kansas City Center
08:13PM 39.0222 -92.9650 220° Southwest 443 510 28,000  Level Kansas City Center
08:14PM 38.9264 -93.0656 219° Southwest 445 512 28,000  Level Kansas City Center
08:15PM 38.8289 -93.1672 219° Southwest 447 514 28,000  Level Kansas City Center
08:16PM 38.7303 -93.2703 219° Southwest 452 520 28,000  Level Kansas City Center
08:17PM 38.6319 -93.3725 219° Southwest 454 522 28,000  Level Kansas City Center
08:18PM 38.5331 -93.4756 219° Southwest 458 527 28,000  Level Kansas City Center
08:19PM 38.4167 -93.5944 219° Southwest 452 520 28,000  Level Kansas City Center
08:20PM 38.3222 -93.6911 219° Southwest 442 509 28,000  Level Kansas City Center
08:21PM 38.2267 -93.7894 219° Southwest 441 507 28,000  Level Kansas City Center
08:22PM 38.1300 -93.8886 219° Southwest 444 511 28,000  Level Kansas City Center
08:23PM 38.0328 -93.9858 218° Southwest 446 513 28,000  Level Kansas City Center
08:24PM 37.9342 -94.0861 219° Southwest 450 518 28,000  Level Kansas City Center
08:25PM 37.8356 -94.1847 218° Southwest 453 521 28,000  Level Kansas City Center
08:26PM 37.7358 -94.2842 218° Southwest 455 524 28,000  Level Kansas City Center
08:27PM 37.6239 -94.3936 218° Southwest 460 529 28,000  Level Kansas City Center
08:28PM 37.5247 -94.4950 219° Southwest 459 528 28,000  Level Kansas City Center
08:29PM 37.4242 -94.5936 218° Southwest 458 527 28,000  Level Kansas City Center
08:30PM 37.3228 -94.6903 217° Southwest 457 526 28,000  Level Kansas City Center
08:31PM 37.2214 -94.7911 218° Southwest 462 532 28,000  Level Kansas City Center
08:32PM 37.0997 -94.8517 202° Southwest 471 542 28,000  Level Kansas City Center
08:33PM 36.9731 -94.9008 197° South 475 547 28,000  Level Kansas City Center
08:34PM 36.8467 -94.9519 198° South 474 545 28,000  Level Kansas City Center
08:35PM 36.7208 -95.0014 197° South 474 545 28,000  Level Kansas City Center
08:36PM 36.5961 -95.0511 198° South 470 541 28,000  Level Kansas City Center
08:37PM 36.4622 -95.1039 198° South 468 539 28,000  Level Kansas City Center
08:38PM 36.3369 -95.1547 198° South 471 542 28,000  Level Kansas City Center
08:39PM 36.2117 -95.2033 197° South 472 543 28,000  Level Kansas City Center
08:40PM 36.0881 -95.2528 198° South 468 539 28,000  Level Kansas City Center
08:41PM 35.9394 -95.3114 198° South 469 540 28,000  Level Kansas City Center
08:42PM 35.8131 -95.3614 198° South 472 543 28,000  Level Kansas City Center
08:43PM 35.6861 -95.4111 198° South 474 545 28,000  Level Kansas City Center
08:44PM 35.5517 -95.4669 199° South 479 551 28,000 -300 Level Fort Worth Center
08:45PM 35.4294 -95.5131 197° South 479 551 27,400 -840 Descending Fort Worth Center
08:46PM 35.3072 -95.5617 198° South 468 539 26,400 -1,020 Descending Fort Worth Center
08:47PM 35.1889 -95.6047 197° South 461 531 25,400 -960 Descending Fort Worth Center
08:48PM 35.0706 -95.6431 195° South 450 518 24,500 -720 Descending Fort Worth Center
08:49PM 34.9564 -95.6833 196° South 437 503 24,000 -300 Descending Fort Worth Center
08:50PM 34.8419 -95.7161 193° South 423 487 24,000  Level Fort Worth Center
08:51PM 34.7300 -95.7536 195° South 423 487 24,000  Level Fort Worth Center
08:52PM 34.6178 -95.7886 194° South 423 487 24,000  Level Fort Worth Center
08:53PM 34.5033 -95.8233 194° South 423 487 24,000  Level Fort Worth Center
08:54PM 34.3850 -95.8558 193° South 428 493 24,000  Level Fort Worth Center
08:55PM 34.2725 -95.8881 193° South 433 498 24,000 -420 Level Fort Worth Center
08:56PM 34.1625 -95.9300 198° South 425 489 23,200 -1,320 Descending Fort Worth Center
08:57PM 34.0631 -95.9944 208° Southwest 389 448 21,500 -1,620 Descending Fort Worth Center
08:58PM 33.9697 -96.0536 208° Southwest 389 448 20,000 -1,500 Descending Fort Worth Center
08:59PM 33.8764 -96.1075 206° Southwest 384 442 18,600 -1,260 Descending Fort Worth Center
09:00PM 33.7936 -96.1589 207° Southwest 379 436 17,500 -1,260 Descending Fort Worth Center
09:01PM 33.6961 -96.2225 208° Southwest 372 428 16,100 -1,260 Descending Fort Worth Center
09:02PM 33.6150 -96.2711 207° Southwest 367 422 15,000 -1,080 Descending Fort Worth Center
09:03PM 33.5175 -96.3297 207° Southwest 367 422 14,000 -1,020 Descending Fort Worth Center
09:04PM 33.4450 -96.3778 209° Southwest 345 397 13,000 -1,080 Descending Fort Worth Center
09:05PM 33.3661 -96.4433 215° Southwest 330 380 11,900 -1,020 Descending Fort Worth Center
09:06PM 33.3103 -96.5086 224° Southwest 324 373 11,000 -480 Descending Fort Worth Center
09:07PM 33.2461 -96.5839 224° Southwest 324 373 11,000  Level Fort Worth Center
09:08PM 33.1778 -96.6664 225° Southwest 324 373 11,000  Level Fort Worth Center
09:09PM 33.1028 -96.7264 214° Southwest 329 379 11,000  Level Fort Worth Center
09:10PM 33.0500 -96.7333 186° South 317 365 11,000 -660 Level Dallas / Fort Worth TRACON
09:11PM 32.9833 -96.7500 192° South 302 348 10,100 -1,320 Descending Dallas / Fort Worth TRACON
09:12PM 32.9000 -96.7667 190° South 274 315 8,600 -1,560 Descending Dallas / Fort Worth TRACON
09:13PM 32.8667 -96.8500 245° Southwest 230 265 6,900 -1,620 Descending Dallas / Fort Worth TRACON